sensor_id;sensor_type;location;lat;lon;timestamp;P1;durP1;ratioP1;P2;durP2;ratioP2
11481;SDS011;5797;51.662;6.748;2023-02-28T00:01:31;4.97;;;3.17;;
11481;SDS011;5797;51.662;6.748;2023-02-28T00:04:00;6.67;;;3.00;;
11481;SDS011;5797;51.662;6.748;2023-02-28T00:06:28;3.67;;;2.70;;
11481;SDS011;5797;51.662;6.748;2023-02-28T00:08:56;5.90;;;3.03;;
11481;SDS011;5797;51.662;6.748;2023-02-28T00:11:26;4.23;;;2.53;;
11481;SDS011;5797;51.662;6.748;2023-02-28T00:13:55;4.10;;;2.73;;
11481;SDS011;5797;51.662;6.748;2023-02-28T00:16:23;5.43;;;3.13;;
11481;SDS011;5797;51.662;6.748;2023-02-28T00:18:52;3.67;;;2.97;;
11481;SDS011;5797;51.662;6.748;2023-02-28T00:21:20;3.83;;;2.83;;
11481;SDS011;5797;51.662;6.748;2023-02-28T00:23:48;3.87;;;2.80;;
11481;SDS011;5797;51.662;6.748;2023-02-28T00:26:17;7.13;;;3.57;;
11481;SDS011;5797;51.662;6.748;2023-02-28T00:28:50;5.23;;;2.90;;
11481;SDS011;5797;51.662;6.748;2023-02-28T00:31:19;8.10;;;3.53;;
11481;SDS011;5797;51.662;6.748;2023-02-28T00:33:47;4.17;;;2.90;;
11481;SDS011;5797;51.662;6.748;2023-02-28T00:36:17;4.57;;;3.30;;
11481;SDS011;5797;51.662;6.748;2023-02-28T00:38:45;4.53;;;3.07;;
11481;SDS011;5797;51.662;6.748;2023-02-28T00:41:14;5.23;;;2.67;;
11481;SDS011;5797;51.662;6.748;2023-02-28T00:43:42;8.27;;;3.47;;
11481;SDS011;5797;51.662;6.748;2023-02-28T00:46:12;4.37;;;2.83;;
11481;SDS011;5797;51.662;6.748;2023-02-28T00:48:40;6.30;;;3.07;;
11481;SDS011;5797;51.662;6.748;2023-02-28T00:51:08;6.50;;;3.27;;
11481;SDS011;5797;51.662;6.748;2023-02-28T00:53:37;4.40;;;2.90;;
11481;SDS011;5797;51.662;6.748;2023-02-28T00:56:05;4.77;;;3.10;;
11481;SDS011;5797;51.662;6.748;2023-02-28T00:58:34;4.07;;;2.67;;
11481;SDS011;5797;51.662;6.748;2023-02-28T01:01:02;6.90;;;2.97;;
11481;SDS011;5797;51.662;6.748;2023-02-28T01:03:32;4.93;;;3.30;;
11481;SDS011;5797;51.662;6.748;2023-02-28T01:06:01;4.57;;;3.00;;
11481;SDS011;5797;51.662;6.748;2023-02-28T01:08:29;4.17;;;3.17;;
11481;SDS011;5797;51.662;6.748;2023-02-28T01:10:57;5.10;;;3.23;;
11481;SDS011;5797;51.662;6.748;2023-02-28T01:13:25;5.07;;;3.07;;
11481;SDS011;5797;51.662;6.748;2023-02-28T01:15:54;5.37;;;3.33;;
11481;SDS011;5797;51.662;6.748;2023-02-28T01:18:24;5.47;;;2.70;;
11481;SDS011;5797;51.662;6.748;2023-02-28T01:20:54;3.83;;;3.10;;
11481;SDS011;5797;51.662;6.748;2023-02-28T01:23:22;6.10;;;3.80;;
11481;SDS011;5797;51.662;6.748;2023-02-28T01:25:51;3.87;;;2.47;;
11481;SDS011;5797;51.662;6.748;2023-02-28T01:28:20;7.60;;;2.70;;
11481;SDS011;5797;51.662;6.748;2023-02-28T01:30:49;5.90;;;3.20;;
11481;SDS011;5797;51.662;6.748;2023-02-28T01:33:18;5.03;;;3.40;;
11481;SDS011;5797;51.662;6.748;2023-02-28T01:35:46;3.30;;;2.70;;
11481;SDS011;5797;51.662;6.748;2023-02-28T01:38:16;4.37;;;2.93;;
11481;SDS011;5797;51.662;6.748;2023-02-28T01:40:49;6.67;;;3.40;;
11481;SDS011;5797;51.662;6.748;2023-02-28T01:43:22;3.33;;;2.87;;
11481;SDS011;5797;51.662;6.748;2023-02-28T01:45:55;7.77;;;3.33;;
11481;SDS011;5797;51.662;6.748;2023-02-28T01:48:25;4.70;;;3.20;;
11481;SDS011;5797;51.662;6.748;2023-02-28T01:50:55;7.03;;;3.20;;
11481;SDS011;5797;51.662;6.748;2023-02-28T01:53:29;5.93;;;4.03;;
11481;SDS011;5797;51.662;6.748;2023-02-28T01:55:59;5.27;;;3.17;;
11481;SDS011;5797;51.662;6.748;2023-02-28T01:58:28;5.37;;;3.40;;
11481;SDS011;5797;51.662;6.748;2023-02-28T02:00:56;7.40;;;3.33;;
11481;SDS011;5797;51.662;6.748;2023-02-28T02:03:26;6.13;;;3.30;;
11481;SDS011;5797;51.662;6.748;2023-02-28T02:05:54;3.70;;;3.23;;
11481;SDS011;5797;51.662;6.748;2023-02-28T02:08:23;5.60;;;2.70;;
11481;SDS011;5797;51.662;6.748;2023-02-28T02:10:53;5.67;;;3.07;;
11481;SDS011;5797;51.662;6.748;2023-02-28T02:16:17;4.60;;;3.10;;
11481;SDS011;5797;51.662;6.748;2023-02-28T02:18:53;5.10;;;3.30;;
11481;SDS011;5797;51.662;6.748;2023-02-28T02:21:42;8.13;;;3.60;;
11481;SDS011;5797;51.662;6.748;2023-02-28T02:24:37;9.67;;;3.70;;
11481;SDS011;5797;51.662;6.748;2023-02-28T02:27:20;5.20;;;3.30;;
11481;SDS011;5797;51.662;6.748;2023-02-28T02:29:57;6.63;;;3.60;;
11481;SDS011;5797;51.662;6.748;2023-02-28T02:32:40;4.33;;;2.80;;
11481;SDS011;5797;51.662;6.748;2023-02-28T02:35:22;4.97;;;3.20;;
11481;SDS011;5797;51.662;6.748;2023-02-28T02:37:55;5.63;;;3.07;;
11481;SDS011;5797;51.662;6.748;2023-02-28T02:40:29;5.10;;;3.47;;
11481;SDS011;5797;51.662;6.748;2023-02-28T02:43:01;5.13;;;3.10;;
11481;SDS011;5797;51.662;6.748;2023-02-28T02:45:32;4.27;;;3.20;;
11481;SDS011;5797;51.662;6.748;2023-02-28T02:48:03;4.73;;;2.80;;
11481;SDS011;5797;51.662;6.748;2023-02-28T02:50:37;8.27;;;4.20;;
11481;SDS011;5797;51.662;6.748;2023-02-28T02:53:07;5.47;;;3.27;;
11481;SDS011;5797;51.662;6.748;2023-02-28T02:55:38;4.87;;;3.20;;
11481;SDS011;5797;51.662;6.748;2023-02-28T02:58:10;4.83;;;2.90;;
11481;SDS011;5797;51.662;6.748;2023-02-28T03:00:42;5.70;;;2.97;;
11481;SDS011;5797;51.662;6.748;2023-02-28T03:03:14;5.13;;;3.17;;
11481;SDS011;5797;51.662;6.748;2023-02-28T03:05:49;8.73;;;3.80;;
11481;SDS011;5797;51.662;6.748;2023-02-28T03:08:18;4.20;;;2.80;;
11481;SDS011;5797;51.662;6.748;2023-02-28T03:10:48;4.87;;;2.80;;
11481;SDS011;5797;51.662;6.748;2023-02-28T03:13:34;8.37;;;3.33;;
11481;SDS011;5797;51.662;6.748;2023-02-28T03:16:16;6.83;;;3.30;;
11481;SDS011;5797;51.662;6.748;2023-02-28T03:18:53;3.33;;;2.73;;
11481;SDS011;5797;51.662;6.748;2023-02-28T03:21:27;7.60;;;3.57;;
11481;SDS011;5797;51.662;6.748;2023-02-28T03:24:01;4.13;;;2.80;;
11481;SDS011;5797;51.662;6.748;2023-02-28T03:26:32;7.00;;;3.87;;
11481;SDS011;5797;51.662;6.748;2023-02-28T03:29:03;5.37;;;3.27;;
11481;SDS011;5797;51.662;6.748;2023-02-28T03:31:35;7.07;;;3.03;;
11481;SDS011;5797;51.662;6.748;2023-02-28T03:34:06;6.00;;;3.10;;
11481;SDS011;5797;51.662;6.748;2023-02-28T03:36:38;6.83;;;3.37;;
11481;SDS011;5797;51.662;6.748;2023-02-28T03:39:11;7.00;;;3.50;;
11481;SDS011;5797;51.662;6.748;2023-02-28T03:41:43;4.43;;;2.73;;
11481;SDS011;5797;51.662;6.748;2023-02-28T03:44:17;5.97;;;3.10;;
11481;SDS011;5797;51.662;6.748;2023-02-28T03:46:48;5.40;;;3.50;;
11481;SDS011;5797;51.662;6.748;2023-02-28T03:49:22;5.67;;;3.03;;
11481;SDS011;5797;51.662;6.748;2023-02-28T03:51:53;5.37;;;2.97;;
11481;SDS011;5797;51.662;6.748;2023-02-28T03:54:23;6.27;;;2.93;;
11481;SDS011;5797;51.662;6.748;2023-02-28T03:56:53;4.53;;;3.17;;
11481;SDS011;5797;51.662;6.748;2023-02-28T03:59:25;9.90;;;3.40;;
11481;SDS011;5797;51.662;6.748;2023-02-28T04:01:56;6.93;;;3.10;;
11481;SDS011;5797;51.662;6.748;2023-02-28T04:04:26;4.17;;;2.80;;
11481;SDS011;5797;51.662;6.748;2023-02-28T04:07:02;4.40;;;2.80;;
11481;SDS011;5797;51.662;6.748;2023-02-28T04:09:32;7.43;;;3.27;;
11481;SDS011;5797;51.662;6.748;2023-02-28T04:12:00;5.77;;;3.17;;
11481;SDS011;5797;51.662;6.748;2023-02-28T04:14:28;5.13;;;3.00;;
11481;SDS011;5797;51.662;6.748;2023-02-28T04:16:57;4.77;;;2.67;;
11481;SDS011;5797;51.662;6.748;2023-02-28T04:19:25;6.70;;;3.53;;
11481;SDS011;5797;51.662;6.748;2023-02-28T04:21:53;4.47;;;2.33;;
11481;SDS011;5797;51.662;6.748;2023-02-28T04:24:24;4.83;;;2.77;;
11481;SDS011;5797;51.662;6.748;2023-02-28T04:26:54;6.17;;;2.97;;
11481;SDS011;5797;51.662;6.748;2023-02-28T04:29:24;8.67;;;3.30;;
11481;SDS011;5797;51.662;6.748;2023-02-28T04:31:54;6.57;;;3.47;;
11481;SDS011;5797;51.662;6.748;2023-02-28T04:34:24;3.80;;;2.63;;
11481;SDS011;5797;51.662;6.748;2023-02-28T04:36:53;5.20;;;2.87;;
11481;SDS011;5797;51.662;6.748;2023-02-28T04:39:39;6.13;;;3.20;;
11481;SDS011;5797;51.662;6.748;2023-02-28T04:42:08;6.00;;;3.40;;
11481;SDS011;5797;51.662;6.748;2023-02-28T04:44:37;6.00;;;3.73;;
11481;SDS011;5797;51.662;6.748;2023-02-28T04:47:05;5.60;;;3.33;;
11481;SDS011;5797;51.662;6.748;2023-02-28T04:49:34;6.17;;;3.53;;
11481;SDS011;5797;51.662;6.748;2023-02-28T04:52:03;6.43;;;3.27;;
11481;SDS011;5797;51.662;6.748;2023-02-28T04:54:32;4.97;;;3.70;;
11481;SDS011;5797;51.662;6.748;2023-02-28T04:57:01;3.83;;;3.27;;
11481;SDS011;5797;51.662;6.748;2023-02-28T04:59:31;5.07;;;3.40;;
11481;SDS011;5797;51.662;6.748;2023-02-28T05:01:59;6.10;;;3.40;;
11481;SDS011;5797;51.662;6.748;2023-02-28T05:04:33;11.00;;;3.47;;
11481;SDS011;5797;51.662;6.748;2023-02-28T05:07:02;5.30;;;3.50;;
11481;SDS011;5797;51.662;6.748;2023-02-28T05:09:31;5.53;;;3.50;;
11481;SDS011;5797;51.662;6.748;2023-02-28T05:12:02;4.47;;;3.43;;
11481;SDS011;5797;51.662;6.748;2023-02-28T05:14:30;6.43;;;3.33;;
11481;SDS011;5797;51.662;6.748;2023-02-28T05:16:59;5.97;;;3.80;;
11481;SDS011;5797;51.662;6.748;2023-02-28T05:19:27;5.00;;;3.23;;
11481;SDS011;5797;51.662;6.748;2023-02-28T05:21:55;5.43;;;3.33;;
11481;SDS011;5797;51.662;6.748;2023-02-28T05:24:24;4.77;;;3.17;;
11481;SDS011;5797;51.662;6.748;2023-02-28T05:26:53;5.83;;;3.37;;
11481;SDS011;5797;51.662;6.748;2023-02-28T05:29:23;4.77;;;3.37;;
11481;SDS011;5797;51.662;6.748;2023-02-28T05:31:51;5.27;;;3.53;;
11481;SDS011;5797;51.662;6.748;2023-02-28T05:34:20;4.97;;;3.30;;
11481;SDS011;5797;51.662;6.748;2023-02-28T05:36:48;5.43;;;3.40;;
11481;SDS011;5797;51.662;6.748;2023-02-28T05:39:16;5.13;;;2.80;;
11481;SDS011;5797;51.662;6.748;2023-02-28T05:41:45;7.03;;;3.20;;
11481;SDS011;5797;51.662;6.748;2023-02-28T05:44:13;4.70;;;3.77;;
11481;SDS011;5797;51.662;6.748;2023-02-28T05:46:42;5.03;;;3.13;;
11481;SDS011;5797;51.662;6.748;2023-02-28T05:49:11;4.50;;;2.97;;
11481;SDS011;5797;51.662;6.748;2023-02-28T05:51:39;6.87;;;3.63;;
11481;SDS011;5797;51.662;6.748;2023-02-28T05:54:07;4.50;;;3.10;;
11481;SDS011;5797;51.662;6.748;2023-02-28T05:56:37;5.77;;;3.50;;
11481;SDS011;5797;51.662;6.748;2023-02-28T05:59:06;5.83;;;3.30;;
11481;SDS011;5797;51.662;6.748;2023-02-28T06:01:35;6.23;;;3.93;;
11481;SDS011;5797;51.662;6.748;2023-02-28T06:04:06;7.03;;;4.27;;
11481;SDS011;5797;51.662;6.748;2023-02-28T06:06:42;5.07;;;3.33;;
11481;SDS011;5797;51.662;6.748;2023-02-28T06:09:11;5.87;;;3.00;;
11481;SDS011;5797;51.662;6.748;2023-02-28T06:11:39;5.83;;;4.03;;
11481;SDS011;5797;51.662;6.748;2023-02-28T06:14:09;5.90;;;3.70;;
11481;SDS011;5797;51.662;6.748;2023-02-28T06:16:42;5.93;;;3.53;;
11481;SDS011;5797;51.662;6.748;2023-02-28T06:19:12;4.97;;;3.40;;
11481;SDS011;5797;51.662;6.748;2023-02-28T06:21:41;4.93;;;3.63;;
11481;SDS011;5797;51.662;6.748;2023-02-28T06:24:10;5.33;;;3.43;;
11481;SDS011;5797;51.662;6.748;2023-02-28T06:26:38;5.07;;;3.10;;
11481;SDS011;5797;51.662;6.748;2023-02-28T06:29:07;7.63;;;3.73;;
11481;SDS011;5797;51.662;6.748;2023-02-28T06:31:35;6.73;;;3.00;;
11481;SDS011;5797;51.662;6.748;2023-02-28T06:34:03;3.90;;;3.17;;
11481;SDS011;5797;51.662;6.748;2023-02-28T06:36:33;4.93;;;3.40;;
11481;SDS011;5797;51.662;6.748;2023-02-28T06:39:01;8.67;;;3.30;;
11481;SDS011;5797;51.662;6.748;2023-02-28T06:41:30;6.20;;;3.13;;
11481;SDS011;5797;51.662;6.748;2023-02-28T06:44:14;5.67;;;3.17;;
11481;SDS011;5797;51.662;6.748;2023-02-28T06:46:44;6.97;;;3.17;;
11481;SDS011;5797;51.662;6.748;2023-02-28T06:49:13;6.90;;;3.40;;
11481;SDS011;5797;51.662;6.748;2023-02-28T06:51:43;6.70;;;3.83;;
11481;SDS011;5797;51.662;6.748;2023-02-28T06:54:12;7.33;;;3.73;;
11481;SDS011;5797;51.662;6.748;2023-02-28T06:56:41;5.23;;;3.77;;
11481;SDS011;5797;51.662;6.748;2023-02-28T06:59:09;6.40;;;3.60;;
11481;SDS011;5797;51.662;6.748;2023-02-28T07:01:37;6.33;;;3.90;;
11481;SDS011;5797;51.662;6.748;2023-02-28T07:04:06;6.47;;;3.60;;
11481;SDS011;5797;51.662;6.748;2023-02-28T07:06:35;6.30;;;4.03;;
11481;SDS011;5797;51.662;6.748;2023-02-28T07:09:04;11.30;;;4.77;;
11481;SDS011;5797;51.662;6.748;2023-02-28T07:11:33;7.47;;;4.03;;
11481;SDS011;5797;51.662;6.748;2023-02-28T07:14:02;9.80;;;4.60;;
11481;SDS011;5797;51.662;6.748;2023-02-28T07:16:30;6.27;;;3.80;;
11481;SDS011;5797;51.662;6.748;2023-02-28T07:18:58;11.20;;;3.93;;
11481;SDS011;5797;51.662;6.748;2023-02-28T07:21:27;6.97;;;4.07;;
11481;SDS011;5797;51.662;6.748;2023-02-28T07:23:56;8.50;;;4.13;;
11481;SDS011;5797;51.662;6.748;2023-02-28T07:26:26;7.33;;;4.27;;
11481;SDS011;5797;51.662;6.748;2023-02-28T07:28:54;6.73;;;3.87;;
11481;SDS011;5797;51.662;6.748;2023-02-28T07:31:22;5.77;;;4.03;;
11481;SDS011;5797;51.662;6.748;2023-02-28T07:33:50;6.37;;;3.70;;
11481;SDS011;5797;51.662;6.748;2023-02-28T07:36:20;6.13;;;3.97;;
11481;SDS011;5797;51.662;6.748;2023-02-28T07:38:48;6.30;;;4.57;;
11481;SDS011;5797;51.662;6.748;2023-02-28T07:41:18;7.50;;;4.07;;
11481;SDS011;5797;51.662;6.748;2023-02-28T07:43:49;6.77;;;3.40;;
11481;SDS011;5797;51.662;6.748;2023-02-28T07:46:18;7.00;;;4.53;;
11481;SDS011;5797;51.662;6.748;2023-02-28T07:48:48;6.40;;;3.63;;
11481;SDS011;5797;51.662;6.748;2023-02-28T07:51:16;4.33;;;3.47;;
11481;SDS011;5797;51.662;6.748;2023-02-28T07:53:45;9.00;;;4.00;;
11481;SDS011;5797;51.662;6.748;2023-02-28T07:56:13;6.27;;;4.07;;
11481;SDS011;5797;51.662;6.748;2023-02-28T07:58:41;6.83;;;3.97;;
11481;SDS011;5797;51.662;6.748;2023-02-28T08:01:11;7.70;;;4.13;;
11481;SDS011;5797;51.662;6.748;2023-02-28T08:03:39;7.23;;;3.80;;
11481;SDS011;5797;51.662;6.748;2023-02-28T08:06:14;6.03;;;3.80;;
11481;SDS011;5797;51.662;6.748;2023-02-28T08:08:44;8.33;;;4.20;;
11481;SDS011;5797;51.662;6.748;2023-02-28T08:11:12;4.53;;;3.67;;
11481;SDS011;5797;51.662;6.748;2023-02-28T08:13:41;5.30;;;3.47;;
11481;SDS011;5797;51.662;6.748;2023-02-28T08:16:12;4.93;;;3.30;;
11481;SDS011;5797;51.662;6.748;2023-02-28T08:18:44;4.73;;;3.40;;
11481;SDS011;5797;51.662;6.748;2023-02-28T08:21:12;6.03;;;3.73;;
11481;SDS011;5797;51.662;6.748;2023-02-28T08:23:40;7.10;;;3.67;;
11481;SDS011;5797;51.662;6.748;2023-02-28T08:26:09;5.73;;;3.60;;
11481;SDS011;5797;51.662;6.748;2023-02-28T08:28:37;6.03;;;3.97;;
11481;SDS011;5797;51.662;6.748;2023-02-28T08:31:09;4.97;;;3.67;;
11481;SDS011;5797;51.662;6.748;2023-02-28T08:33:41;6.70;;;3.67;;
11481;SDS011;5797;51.662;6.748;2023-02-28T08:36:11;5.23;;;3.60;;
11481;SDS011;5797;51.662;6.748;2023-02-28T08:38:39;6.13;;;3.27;;
11481;SDS011;5797;51.662;6.748;2023-02-28T08:41:09;6.07;;;3.70;;
11481;SDS011;5797;51.662;6.748;2023-02-28T08:43:39;4.33;;;3.50;;
11481;SDS011;5797;51.662;6.748;2023-02-28T08:46:08;7.13;;;3.40;;
11481;SDS011;5797;51.662;6.748;2023-02-28T08:48:41;5.60;;;3.43;;
11481;SDS011;5797;51.662;6.748;2023-02-28T08:51:11;5.63;;;3.60;;
11481;SDS011;5797;51.662;6.748;2023-02-28T08:53:40;5.90;;;3.10;;
11481;SDS011;5797;51.662;6.748;2023-02-28T08:56:09;7.20;;;3.50;;
11481;SDS011;5797;51.662;6.748;2023-02-28T08:58:39;7.20;;;3.40;;
11481;SDS011;5797;51.662;6.748;2023-02-28T09:01:08;5.77;;;3.70;;
11481;SDS011;5797;51.662;6.748;2023-02-28T09:03:39;4.53;;;3.27;;
11481;SDS011;5797;51.662;6.748;2023-02-28T09:06:09;4.97;;;3.17;;
11481;SDS011;5797;51.662;6.748;2023-02-28T09:08:38;6.70;;;3.90;;
11481;SDS011;5797;51.662;6.748;2023-02-28T09:11:07;5.23;;;3.33;;
11481;SDS011;5797;51.662;6.748;2023-02-28T09:13:35;4.50;;;2.90;;
11481;SDS011;5797;51.662;6.748;2023-02-28T09:16:05;3.37;;;3.00;;
11481;SDS011;5797;51.662;6.748;2023-02-28T09:18:34;5.20;;;3.03;;
11481;SDS011;5797;51.662;6.748;2023-02-28T09:21:05;5.40;;;2.80;;
11481;SDS011;5797;51.662;6.748;2023-02-28T09:23:35;3.70;;;2.37;;
11481;SDS011;5797;51.662;6.748;2023-02-28T09:26:05;3.47;;;2.37;;
11481;SDS011;5797;51.662;6.748;2023-02-28T09:28:33;2.77;;;2.27;;
11481;SDS011;5797;51.662;6.748;2023-02-28T09:31:02;4.73;;;2.70;;
11481;SDS011;5797;51.662;6.748;2023-02-28T09:33:31;2.70;;;1.90;;
11481;SDS011;5797;51.662;6.748;2023-02-28T09:36:02;3.47;;;1.97;;
11481;SDS011;5797;51.662;6.748;2023-02-28T09:38:32;2.97;;;2.13;;
11481;SDS011;5797;51.662;6.748;2023-02-28T09:41:02;2.77;;;2.00;;
11481;SDS011;5797;51.662;6.748;2023-02-28T09:43:32;3.73;;;1.97;;
11481;SDS011;5797;51.662;6.748;2023-02-28T09:46:05;2.23;;;2.03;;
11481;SDS011;5797;51.662;6.748;2023-02-28T09:48:39;4.27;;;2.00;;
11481;SDS011;5797;51.662;6.748;2023-02-28T09:51:12;6.07;;;2.10;;
11481;SDS011;5797;51.662;6.748;2023-02-28T09:53:45;2.57;;;2.03;;
11481;SDS011;5797;51.662;6.748;2023-02-28T09:56:18;2.10;;;1.90;;
11481;SDS011;5797;51.662;6.748;2023-02-28T09:58:54;1.80;;;1.70;;
11481;SDS011;5797;51.662;6.748;2023-02-28T10:01:25;2.13;;;1.53;;
11481;SDS011;5797;51.662;6.748;2023-02-28T10:03:58;3.17;;;1.67;;
11481;SDS011;5797;51.662;6.748;2023-02-28T10:06:29;3.20;;;2.20;;
11481;SDS011;5797;51.662;6.748;2023-02-28T10:09:03;2.00;;;1.80;;
11481;SDS011;5797;51.662;6.748;2023-02-28T10:11:33;2.93;;;2.00;;
11481;SDS011;5797;51.662;6.748;2023-02-28T10:14:02;2.73;;;1.60;;
11481;SDS011;5797;51.662;6.748;2023-02-28T10:16:34;2.70;;;1.80;;
11481;SDS011;5797;51.662;6.748;2023-02-28T10:19:04;4.13;;;1.77;;
11481;SDS011;5797;51.662;6.748;2023-02-28T10:21:35;5.57;;;1.93;;
11481;SDS011;5797;51.662;6.748;2023-02-28T10:24:13;1.60;;;1.50;;
11481;SDS011;5797;51.662;6.748;2023-02-28T10:26:48;2.07;;;1.80;;
11481;SDS011;5797;51.662;6.748;2023-02-28T10:29:16;1.57;;;1.47;;
11481;SDS011;5797;51.662;6.748;2023-02-28T10:31:44;2.00;;;1.60;;
11481;SDS011;5797;51.662;6.748;2023-02-28T10:34:13;2.60;;;1.57;;
11481;SDS011;5797;51.662;6.748;2023-02-28T10:36:41;2.53;;;1.93;;
11481;SDS011;5797;51.662;6.748;2023-02-28T10:42:22;1.80;;;1.57;;
11481;SDS011;5797;51.662;6.748;2023-02-28T10:45:06;4.43;;;2.47;;
11481;SDS011;5797;51.662;6.748;2023-02-28T10:47:40;3.30;;;1.77;;
11481;SDS011;5797;51.662;6.748;2023-02-28T10:50:26;1.93;;;1.50;;
11481;SDS011;5797;51.662;6.748;2023-02-28T10:53:04;1.90;;;1.70;;
11481;SDS011;5797;51.662;6.748;2023-02-28T10:55:37;2.77;;;1.70;;
11481;SDS011;5797;51.662;6.748;2023-02-28T10:58:14;1.87;;;1.67;;
11481;SDS011;5797;51.662;6.748;2023-02-28T11:00:48;2.50;;;1.80;;
11481;SDS011;5797;51.662;6.748;2023-02-28T11:03:24;2.37;;;1.60;;
11481;SDS011;5797;51.662;6.748;2023-02-28T11:05:56;3.97;;;1.73;;
11481;SDS011;5797;51.662;6.748;2023-02-28T11:08:25;3.37;;;2.00;;
11481;SDS011;5797;51.662;6.748;2023-02-28T11:10:55;1.90;;;1.70;;
11481;SDS011;5797;51.662;6.748;2023-02-28T11:13:26;2.27;;;1.77;;
11481;SDS011;5797;51.662;6.748;2023-02-28T11:15:56;4.83;;;1.70;;
11481;SDS011;5797;51.662;6.748;2023-02-28T11:18:27;4.33;;;2.07;;
11481;SDS011;5797;51.662;6.748;2023-02-28T11:20:58;2.37;;;1.77;;
11481;SDS011;5797;51.662;6.748;2023-02-28T11:23:28;2.83;;;1.43;;
11481;SDS011;5797;51.662;6.748;2023-02-28T11:28:43;2.73;;;1.60;;
11481;SDS011;5797;51.662;6.748;2023-02-28T11:31:15;3.53;;;1.97;;
11481;SDS011;5797;51.662;6.748;2023-02-28T11:33:47;1.80;;;1.70;;
11481;SDS011;5797;51.662;6.748;2023-02-28T11:36:18;1.83;;;1.57;;
11481;SDS011;5797;51.662;6.748;2023-02-28T11:38:48;4.67;;;2.03;;
11481;SDS011;5797;51.662;6.748;2023-02-28T11:41:30;3.17;;;1.90;;
11481;SDS011;5797;51.662;6.748;2023-02-28T11:44:26;2.70;;;2.20;;
11481;SDS011;5797;51.662;6.748;2023-02-28T11:47:04;3.60;;;2.20;;
11481;SDS011;5797;51.662;6.748;2023-02-28T11:49:38;4.07;;;2.37;;
11481;SDS011;5797;51.662;6.748;2023-02-28T11:52:16;6.33;;;2.30;;
11481;SDS011;5797;51.662;6.748;2023-02-28T11:54:59;3.33;;;2.70;;
11481;SDS011;5797;51.662;6.748;2023-02-28T11:57:43;2.40;;;2.00;;
11481;SDS011;5797;51.662;6.748;2023-02-28T12:00:28;4.77;;;2.10;;
11481;SDS011;5797;51.662;6.748;2023-02-28T12:03:03;2.90;;;2.40;;
11481;SDS011;5797;51.662;6.748;2023-02-28T12:05:38;3.30;;;1.90;;
11481;SDS011;5797;51.662;6.748;2023-02-28T12:08:20;5.40;;;2.30;;
11481;SDS011;5797;51.662;6.748;2023-02-28T12:10:57;3.23;;;2.40;;
11481;SDS011;5797;51.662;6.748;2023-02-28T12:13:41;3.80;;;1.90;;
11481;SDS011;5797;51.662;6.748;2023-02-28T12:19:17;2.90;;;1.93;;
11481;SDS011;5797;51.662;6.748;2023-02-28T12:21:56;3.27;;;1.90;;
11481;SDS011;5797;51.662;6.748;2023-02-28T12:27:43;3.90;;;2.10;;
11481;SDS011;5797;51.662;6.748;2023-02-28T12:30:15;4.93;;;2.30;;
11481;SDS011;5797;51.662;6.748;2023-02-28T12:32:46;2.23;;;1.97;;
11481;SDS011;5797;51.662;6.748;2023-02-28T12:35:17;2.23;;;2.03;;
11481;SDS011;5797;51.662;6.748;2023-02-28T12:37:49;2.83;;;2.10;;
11481;SDS011;5797;51.662;6.748;2023-02-28T12:40:20;3.27;;;2.23;;
11481;SDS011;5797;51.662;6.748;2023-02-28T12:42:50;3.70;;;2.40;;
11481;SDS011;5797;51.662;6.748;2023-02-28T12:45:22;2.30;;;2.10;;
11481;SDS011;5797;51.662;6.748;2023-02-28T12:47:52;5.27;;;2.47;;
11481;SDS011;5797;51.662;6.748;2023-02-28T12:50:23;2.47;;;2.00;;
11481;SDS011;5797;51.662;6.748;2023-02-28T12:52:53;4.50;;;2.17;;
11481;SDS011;5797;51.662;6.748;2023-02-28T12:55:27;2.30;;;2.10;;
11481;SDS011;5797;51.662;6.748;2023-02-28T12:58:01;3.50;;;2.53;;
11481;SDS011;5797;51.662;6.748;2023-02-28T13:00:38;2.93;;;2.37;;
11481;SDS011;5797;51.662;6.748;2023-02-28T13:03:19;4.10;;;2.73;;
11481;SDS011;5797;51.662;6.748;2023-02-28T13:09:02;4.30;;;2.07;;
11481;SDS011;5797;51.662;6.748;2023-02-28T13:11:33;5.07;;;3.13;;
11481;SDS011;5797;51.662;6.748;2023-02-28T13:14:15;2.43;;;2.20;;
11481;SDS011;5797;51.662;6.748;2023-02-28T13:16:53;5.00;;;2.47;;
11481;SDS011;5797;51.662;6.748;2023-02-28T13:19:24;3.90;;;2.53;;
11481;SDS011;5797;51.662;6.748;2023-02-28T13:21:54;3.90;;;2.30;;
11481;SDS011;5797;51.662;6.748;2023-02-28T13:24:36;3.60;;;2.43;;
11481;SDS011;5797;51.662;6.748;2023-02-28T13:33:23;2.50;;;2.13;;
11481;SDS011;5797;51.662;6.748;2023-02-28T13:36:10;2.33;;;2.13;;
11481;SDS011;5797;51.662;6.748;2023-02-28T13:38:52;3.47;;;2.63;;
11481;SDS011;5797;51.662;6.748;2023-02-28T13:44:14;2.80;;;2.30;;
11481;SDS011;5797;51.662;6.748;2023-02-28T13:49:50;3.40;;;2.23;;
11481;SDS011;5797;51.662;6.748;2023-02-28T13:52:20;5.43;;;2.33;;
11481;SDS011;5797;51.662;6.748;2023-02-28T13:57:45;2.50;;;2.03;;
11481;SDS011;5797;51.662;6.748;2023-02-28T14:00:26;3.23;;;2.30;;
11481;SDS011;5797;51.662;6.748;2023-02-28T14:03:07;3.27;;;1.97;;
11481;SDS011;5797;51.662;6.748;2023-02-28T14:05:43;3.10;;;2.57;;
11481;SDS011;5797;51.662;6.748;2023-02-28T14:08:13;2.77;;;2.10;;
11481;SDS011;5797;51.662;6.748;2023-02-28T14:10:45;2.80;;;2.10;;
11481;SDS011;5797;51.662;6.748;2023-02-28T14:16:11;3.60;;;2.20;;
11481;SDS011;5797;51.662;6.748;2023-02-28T14:18:42;3.07;;;2.33;;
11481;SDS011;5797;51.662;6.748;2023-02-28T14:21:21;3.20;;;2.50;;
11481;SDS011;5797;51.662;6.748;2023-02-28T14:27:03;2.87;;;2.23;;
11481;SDS011;5797;51.662;6.748;2023-02-28T14:29:57;3.10;;;1.97;;
11481;SDS011;5797;51.662;6.748;2023-02-28T14:32:49;2.63;;;2.33;;
11481;SDS011;5797;51.662;6.748;2023-02-28T14:35:27;5.30;;;2.40;;
11481;SDS011;5797;51.662;6.748;2023-02-28T14:38:05;3.87;;;2.70;;
11481;SDS011;5797;51.662;6.748;2023-02-28T14:40:36;3.40;;;2.60;;
11481;SDS011;5797;51.662;6.748;2023-02-28T14:43:18;2.90;;;2.40;;
11481;SDS011;5797;51.662;6.748;2023-02-28T14:45:49;3.30;;;2.50;;
11481;SDS011;5797;51.662;6.748;2023-02-28T14:48:18;3.03;;;2.50;;
11481;SDS011;5797;51.662;6.748;2023-02-28T14:50:49;2.83;;;2.30;;
11481;SDS011;5797;51.662;6.748;2023-02-28T14:53:21;2.93;;;2.63;;
11481;SDS011;5797;51.662;6.748;2023-02-28T14:55:50;3.33;;;2.40;;
11481;SDS011;5797;51.662;6.748;2023-02-28T14:58:22;3.83;;;2.47;;
11481;SDS011;5797;51.662;6.748;2023-02-28T15:00:54;2.77;;;2.40;;
11481;SDS011;5797;51.662;6.748;2023-02-28T15:03:25;3.77;;;2.33;;
11481;SDS011;5797;51.662;6.748;2023-02-28T15:05:58;2.73;;;2.43;;
11481;SDS011;5797;51.662;6.748;2023-02-28T15:08:29;4.17;;;2.40;;
11481;SDS011;5797;51.662;6.748;2023-02-28T15:11:02;2.70;;;2.30;;
11481;SDS011;5797;51.662;6.748;2023-02-28T15:13:35;3.20;;;2.20;;
11481;SDS011;5797;51.662;6.748;2023-02-28T15:16:08;4.20;;;2.50;;
11481;SDS011;5797;51.662;6.748;2023-02-28T15:18:42;3.53;;;2.33;;
11481;SDS011;5797;51.662;6.748;2023-02-28T15:21:13;2.43;;;2.00;;
11481;SDS011;5797;51.662;6.748;2023-02-28T15:23:46;3.03;;;2.20;;
11481;SDS011;5797;51.662;6.748;2023-02-28T15:26:19;3.90;;;2.43;;
11481;SDS011;5797;51.662;6.748;2023-02-28T15:28:49;5.47;;;2.33;;
11481;SDS011;5797;51.662;6.748;2023-02-28T15:31:20;2.67;;;2.30;;
11481;SDS011;5797;51.662;6.748;2023-02-28T15:33:54;3.57;;;2.60;;
11481;SDS011;5797;51.662;6.748;2023-02-28T15:36:24;5.23;;;2.50;;
11481;SDS011;5797;51.662;6.748;2023-02-28T15:38:56;3.13;;;2.50;;
11481;SDS011;5797;51.662;6.748;2023-02-28T15:41:40;4.33;;;2.87;;
11481;SDS011;5797;51.662;6.748;2023-02-28T15:44:16;2.57;;;2.37;;
11481;SDS011;5797;51.662;6.748;2023-02-28T15:46:57;3.90;;;2.53;;
11481;SDS011;5797;51.662;6.748;2023-02-28T15:49:28;5.10;;;2.50;;
11481;SDS011;5797;51.662;6.748;2023-02-28T15:52:03;4.87;;;2.60;;
11481;SDS011;5797;51.662;6.748;2023-02-28T15:54:33;2.63;;;2.07;;
11481;SDS011;5797;51.662;6.748;2023-02-28T15:57:03;4.13;;;3.13;;
11481;SDS011;5797;51.662;6.748;2023-02-28T15:59:35;2.83;;;2.53;;
11481;SDS011;5797;51.662;6.748;2023-02-28T16:02:12;3.13;;;2.53;;
11481;SDS011;5797;51.662;6.748;2023-02-28T16:04:55;4.07;;;2.40;;
11481;SDS011;5797;51.662;6.748;2023-02-28T16:07:25;3.87;;;2.67;;